الصفحة الرئيسية
METAR-TAF:

METAR-TAF

مطار :

São Gabriel da Cachoeira, الأمازون, البرازيل

دائرة عرض: 00-08S, خط طول: 067-05W, ارتفاع: 90 متر

مراقبة الطقس الحالي

تاريخ ووقت الإصدار 41 دقيقة قبل الساعة 17:00UTC
ريح 6 عقدة من الجنوب
درجة الحرارة 33°درجة مئوية
الرطوبة 63%
ضغط 1011 hPa
الرؤية 10 كم أو أكثر
غيوم متفرقة على ارتفاع 3000 قدم
غيوم قليلة على ارتفاع 3300 قدم, مزن ركامية عمودية.

METAR: SBUA 041700Z 17006KT 9999 SCT030 FEW033TCU 33/25 Q1011

زمن: 13:41 (17:41 UTC)


TAF: مفقودة

أرصاد الطقس والتوقعات من أكثر من 4000 مطار (تقارير الطقس للمطار METAR والتنبؤ بالطقس بالمطارTAF).

المحطات المتاحة هي النقط الصفراء والحمراء على الخريطة.

حرك المؤشر فوق النقطة لمعرفة اسم المحطة.

ثم انقر لمعرفة أرصاد وتوقعات الطقس.

لتغيير الخارطة: اضغط على الأزرار الخضراء مع رمز الصليب الأسود للتكبير. على الزر الأخضر مع شرطة للتصغير، أو على الأسهم الخضراء للخرائط المجاورة.


METAR-TAF: